createdAt,value
2023-03-23T16:00:42.480Z,9.54
2023-03-23T16:05:45.601Z,9.54
2023-03-23T16:10:48.209Z,9.55
2023-03-23T16:15:51.785Z,9.42
2023-03-23T16:20:54.482Z,9.40
2023-03-23T16:25:57.091Z,9.47
2023-03-23T16:30:59.893Z,9.39
2023-03-23T16:36:03.226Z,9.42
2023-03-23T16:41:06.297Z,9.43
2023-03-23T16:46:12.677Z,9.13
2023-03-23T16:51:15.557Z,9.33
2023-03-23T16:56:18.219Z,9.13
2023-03-23T17:01:20.999Z,9.07
2023-03-23T17:06:23.568Z,9.09
2023-03-23T17:11:26.409Z,9.02
2023-03-23T17:16:29.033Z,8.98
2023-03-23T17:21:32.381Z,9.01
2023-03-23T17:26:36.172Z,8.96
2023-03-23T17:31:39.117Z,8.90
2023-03-23T17:36:42.005Z,8.85
2023-03-23T17:41:44.615Z,8.78
2023-03-23T17:46:47.377Z,8.74
2023-03-23T17:51:50.677Z,8.62
2023-03-23T17:56:53.799Z,8.64
2023-03-23T18:01:57.007Z,8.61
2023-03-23T18:06:59.661Z,8.60
2023-03-23T18:12:02.379Z,8.68
2023-03-23T18:17:05.523Z,8.55
2023-03-23T18:22:08.116Z,8.57
2023-03-23T18:27:10.737Z,8.59
2023-03-23T18:32:13.423Z,8.48
2023-03-23T18:37:16.541Z,8.63
2023-03-23T18:42:19.345Z,8.58
2023-03-23T18:47:22.250Z,8.54
2023-03-23T18:52:30.964Z,8.59
2023-03-23T18:57:33.647Z,8.50
2023-03-23T19:02:39.496Z,8.53
2023-03-23T19:07:43.641Z,8.49
2023-03-23T19:12:47.376Z,8.54
2023-03-23T19:17:56.273Z,8.48
2023-03-23T19:22:59.247Z,8.42
2023-03-23T19:33:08.196Z,8.47
2023-03-23T19:38:11.646Z,8.40
2023-03-23T19:43:14.272Z,8.34
2023-03-23T19:48:18.033Z,8.34
2023-03-23T19:53:20.733Z,8.29
2023-03-23T19:58:23.418Z,8.29
2023-03-23T20:03:26.357Z,8.28
2023-03-23T20:08:29.635Z,8.35
2023-03-23T20:13:32.959Z,8.14
2023-03-23T20:18:37.292Z,8.27
2023-03-23T20:23:42.345Z,8.25
2023-03-23T20:28:47.527Z,8.22
2023-03-23T20:34:00.885Z,8.13
2023-03-23T20:39:06.385Z,7.97
2023-03-23T20:44:15.968Z,8.01
2023-03-23T20:49:20.935Z,7.93
2023-03-23T20:54:24.724Z,8.00
2023-03-23T20:59:28.215Z,7.92
2023-03-23T21:04:30.841Z,7.86
2023-03-23T21:09:34.117Z,7.91
2023-03-23T21:14:39.125Z,7.97
2023-03-23T21:19:41.770Z,7.94
2023-03-23T21:24:46.546Z,7.96
2023-03-23T21:29:49.111Z,7.88
2023-03-23T21:34:52.804Z,7.76
2023-03-23T21:39:56.005Z,7.82
2023-03-23T21:45:02.871Z,7.77
2023-03-23T21:50:07.287Z,7.72
2023-03-23T21:55:12.562Z,7.76
2023-03-23T22:00:15.902Z,7.74
2023-03-23T22:05:19.225Z,7.73
2023-03-23T22:10:21.882Z,7.76
2023-03-23T22:15:27.967Z,7.84
2023-03-23T22:20:31.170Z,7.75
2023-03-23T22:25:36.379Z,7.83
2023-03-23T22:30:39.285Z,7.79
2023-03-23T22:35:42.546Z,7.77
2023-03-23T22:40:54.654Z,7.59
2023-03-23T22:45:57.300Z,7.58
2023-03-23T22:51:00.591Z,7.61
2023-03-23T22:56:04.033Z,7.60
2023-03-23T23:01:10.096Z,7.72
2023-03-23T23:06:14.915Z,7.74
2023-03-23T23:11:19.976Z,7.71
2023-03-23T23:16:24.499Z,7.67
2023-03-23T23:21:27.267Z,7.69
2023-03-23T23:26:29.988Z,7.67
2023-03-23T23:31:33.847Z,7.72
2023-03-23T23:36:37.699Z,7.62
2023-03-23T23:41:40.342Z,7.65
2023-03-23T23:46:43.089Z,7.64
2023-03-23T23:51:45.967Z,7.56
2023-03-23T23:56:51.568Z,7.58
